sensor_id;sensor_type;location;lat;lon;timestamp;temperature;humidity
18876;DHT22;9570;50.854;13.778;2023-08-06T00:02:12;16.50;99.90
18876;DHT22;9570;50.854;13.778;2023-08-06T00:04:37;16.50;99.90
18876;DHT22;9570;50.854;13.778;2023-08-06T00:07:03;16.50;99.90
18876;DHT22;9570;50.854;13.778;2023-08-06T00:09:29;16.50;99.90
18876;DHT22;9570;50.854;13.778;2023-08-06T00:11:54;16.50;99.90
18876;DHT22;9570;50.854;13.778;2023-08-06T00:14:20;16.50;99.90
18876;DHT22;9570;50.854;13.778;2023-08-06T00:16:45;16.50;99.90
18876;DHT22;9570;50.854;13.778;2023-08-06T00:19:11;16.50;99.90
18876;DHT22;9570;50.854;13.778;2023-08-06T00:21:37;16.50;99.90
18876;DHT22;9570;50.854;13.778;2023-08-06T00:24:03;16.50;99.90
18876;DHT22;9570;50.854;13.778;2023-08-06T00:26:28;16.40;99.90
18876;DHT22;9570;50.854;13.778;2023-08-06T00:28:54;16.30;99.90
18876;DHT22;9570;50.854;13.778;2023-08-06T00:31:19;16.30;99.90
18876;DHT22;9570;50.854;13.778;2023-08-06T00:33:45;16.30;99.90
18876;DHT22;9570;50.854;13.778;2023-08-06T00:36:10;16.30;99.90
18876;DHT22;9570;50.854;13.778;2023-08-06T00:38:36;16.30;99.90
18876;DHT22;9570;50.854;13.778;2023-08-06T00:41:01;16.30;99.90
18876;DHT22;9570;50.854;13.778;2023-08-06T00:43:27;16.20;99.90
18876;DHT22;9570;50.854;13.778;2023-08-06T00:45:52;16.20;99.90
18876;DHT22;9570;50.854;13.778;2023-08-06T00:48:18;16.20;99.90
18876;DHT22;9570;50.854;13.778;2023-08-06T00:50:44;16.30;99.90
18876;DHT22;9570;50.854;13.778;2023-08-06T00:53:10;16.30;99.90
18876;DHT22;9570;50.854;13.778;2023-08-06T00:55:36;16.30;99.90
18876;DHT22;9570;50.854;13.778;2023-08-06T00:58:01;16.30;99.90
18876;DHT22;9570;50.854;13.778;2023-08-06T01:00:27;16.20;99.90
18876;DHT22;9570;50.854;13.778;2023-08-06T01:02:53;16.10;99.90
18876;DHT22;9570;50.854;13.778;2023-08-06T01:05:20;16.10;99.90
18876;DHT22;9570;50.854;13.778;2023-08-06T01:13:58;16.20;99.90
18876;DHT22;9570;50.854;13.778;2023-08-06T01:16:25;16.10;99.90
18876;DHT22;9570;50.854;13.778;2023-08-06T01:18:51;16.10;99.90
18876;DHT22;9570;50.854;13.778;2023-08-06T01:21:17;16.20;99.90
18876;DHT22;9570;50.854;13.778;2023-08-06T01:23:43;16.20;99.90
18876;DHT22;9570;50.854;13.778;2023-08-06T01:26:33;16.20;99.90
18876;DHT22;9570;50.854;13.778;2023-08-06T01:29:14;16.20;99.90
18876;DHT22;9570;50.854;13.778;2023-08-06T01:31:43;16.30;99.90
18876;DHT22;9570;50.854;13.778;2023-08-06T01:34:13;16.20;99.90
18876;DHT22;9570;50.854;13.778;2023-08-06T01:36:42;16.20;99.90
18876;DHT22;9570;50.854;13.778;2023-08-06T01:39:07;16.20;99.90
18876;DHT22;9570;50.854;13.778;2023-08-06T01:41:33;16.20;99.90
18876;DHT22;9570;50.854;13.778;2023-08-06T01:43:58;16.20;99.90
18876;DHT22;9570;50.854;13.778;2023-08-06T01:46:24;16.20;99.90
18876;DHT22;9570;50.854;13.778;2023-08-06T01:48:49;16.20;99.90
18876;DHT22;9570;50.854;13.778;2023-08-06T01:51:15;16.10;99.90
18876;DHT22;9570;50.854;13.778;2023-08-06T01:53:40;16.00;99.90
18876;DHT22;9570;50.854;13.778;2023-08-06T01:56:06;16.10;99.90
18876;DHT22;9570;50.854;13.778;2023-08-06T01:58:31;16.10;99.90
18876;DHT22;9570;50.854;13.778;2023-08-06T02:00:57;16.10;99.90
18876;DHT22;9570;50.854;13.778;2023-08-06T02:03:22;16.10;99.90
18876;DHT22;9570;50.854;13.778;2023-08-06T02:05:48;16.10;99.90
18876;DHT22;9570;50.854;13.778;2023-08-06T02:08:13;16.20;99.90
18876;DHT22;9570;50.854;13.778;2023-08-06T02:10:39;16.10;99.90
18876;DHT22;9570;50.854;13.778;2023-08-06T02:13:04;16.10;99.90
18876;DHT22;9570;50.854;13.778;2023-08-06T02:15:30;16.10;99.90
18876;DHT22;9570;50.854;13.778;2023-08-06T02:17:55;16.10;99.90
18876;DHT22;9570;50.854;13.778;2023-08-06T02:20:21;16.10;99.90
18876;DHT22;9570;50.854;13.778;2023-08-06T02:22:47;16.10;99.90
18876;DHT22;9570;50.854;13.778;2023-08-06T02:25:12;16.10;99.90
18876;DHT22;9570;50.854;13.778;2023-08-06T02:27:38;16.10;99.90
18876;DHT22;9570;50.854;13.778;2023-08-06T02:30:04;16.20;99.90
18876;DHT22;9570;50.854;13.778;2023-08-06T02:32:30;16.20;99.90
18876;DHT22;9570;50.854;13.778;2023-08-06T02:34:57;16.20;99.90
18876;DHT22;9570;50.854;13.778;2023-08-06T02:37:23;16.20;99.90
18876;DHT22;9570;50.854;13.778;2023-08-06T02:39:48;16.20;99.90
18876;DHT22;9570;50.854;13.778;2023-08-06T02:42:14;16.20;99.90
18876;DHT22;9570;50.854;13.778;2023-08-06T02:44:39;16.20;99.90
18876;DHT22;9570;50.854;13.778;2023-08-06T02:47:05;16.20;99.90
18876;DHT22;9570;50.854;13.778;2023-08-06T02:49:30;16.10;99.90
18876;DHT22;9570;50.854;13.778;2023-08-06T02:51:56;16.00;99.90
18876;DHT22;9570;50.854;13.778;2023-08-06T02:54:21;16.00;99.90
18876;DHT22;9570;50.854;13.778;2023-08-06T02:56:47;16.10;99.90
18876;DHT22;9570;50.854;13.778;2023-08-06T02:59:13;16.10;99.90
18876;DHT22;9570;50.854;13.778;2023-08-06T03:01:38;16.20;99.90
18876;DHT22;9570;50.854;13.778;2023-08-06T03:04:04;16.20;99.90
18876;DHT22;9570;50.854;13.778;2023-08-06T03:06:30;16.20;99.90
18876;DHT22;9570;50.854;13.778;2023-08-06T03:08:56;16.20;99.90
18876;DHT22;9570;50.854;13.778;2023-08-06T03:11:21;16.20;99.90
18876;DHT22;9570;50.854;13.778;2023-08-06T03:13:47;16.20;99.90
18876;DHT22;9570;50.854;13.778;2023-08-06T03:16:13;16.30;99.90
18876;DHT22;9570;50.854;13.778;2023-08-06T03:18:39;16.30;99.90
18876;DHT22;9570;50.854;13.778;2023-08-06T03:21:04;16.30;99.90
18876;DHT22;9570;50.854;13.778;2023-08-06T03:23:30;16.30;99.90
18876;DHT22;9570;50.854;13.778;2023-08-06T03:25:55;16.30;99.90
18876;DHT22;9570;50.854;13.778;2023-08-06T03:28:21;16.30;99.90
18876;DHT22;9570;50.854;13.778;2023-08-06T03:30:47;16.30;99.90
18876;DHT22;9570;50.854;13.778;2023-08-06T03:33:13;16.30;99.90
18876;DHT22;9570;50.854;13.778;2023-08-06T03:35:39;16.10;99.90
18876;DHT22;9570;50.854;13.778;2023-08-06T03:38:04;16.10;99.90
18876;DHT22;9570;50.854;13.778;2023-08-06T03:40:29;16.10;99.90
18876;DHT22;9570;50.854;13.778;2023-08-06T03:42:55;16.20;99.90
18876;DHT22;9570;50.854;13.778;2023-08-06T03:45:21;16.20;99.90
18876;DHT22;9570;50.854;13.778;2023-08-06T03:47:46;16.20;99.90
18876;DHT22;9570;50.854;13.778;2023-08-06T03:50:12;16.20;99.90
18876;DHT22;9570;50.854;13.778;2023-08-06T03:52:37;16.30;99.90
18876;DHT22;9570;50.854;13.778;2023-08-06T03:55:03;16.30;99.90
18876;DHT22;9570;50.854;13.778;2023-08-06T03:57:28;16.20;99.90
18876;DHT22;9570;50.854;13.778;2023-08-06T03:59:54;16.00;99.90
18876;DHT22;9570;50.854;13.778;2023-08-06T04:02:19;16.00;99.90
18876;DHT22;9570;50.854;13.778;2023-08-06T04:04:45;16.00;99.90
18876;DHT22;9570;50.854;13.778;2023-08-06T04:07:10;16.00;99.90
18876;DHT22;9570;50.854;13.778;2023-08-06T04:09:52;16.10;99.90
18876;DHT22;9570;50.854;13.778;2023-08-06T04:12:18;16.10;99.90
18876;DHT22;9570;50.854;13.778;2023-08-06T04:14:43;16.10;99.90
18876;DHT22;9570;50.854;13.778;2023-08-06T04:17:09;16.20;99.90
18876;DHT22;9570;50.854;13.778;2023-08-06T04:19:34;16.20;99.90
18876;DHT22;9570;50.854;13.778;2023-08-06T04:22:00;16.20;99.90
18876;DHT22;9570;50.854;13.778;2023-08-06T04:24:25;16.20;99.90
18876;DHT22;9570;50.854;13.778;2023-08-06T04:26:51;16.10;99.90
18876;DHT22;9570;50.854;13.778;2023-08-06T04:29:16;16.10;99.90
18876;DHT22;9570;50.854;13.778;2023-08-06T04:31:42;16.20;99.90
18876;DHT22;9570;50.854;13.778;2023-08-06T04:34:07;16.20;99.90
18876;DHT22;9570;50.854;13.778;2023-08-06T04:36:34;16.20;99.90
18876;DHT22;9570;50.854;13.778;2023-08-06T04:39:00;16.20;99.90
18876;DHT22;9570;50.854;13.778;2023-08-06T04:41:25;16.20;99.90
18876;DHT22;9570;50.854;13.778;2023-08-06T04:43:51;16.30;99.90
18876;DHT22;9570;50.854;13.778;2023-08-06T04:46:16;16.30;99.90
18876;DHT22;9570;50.854;13.778;2023-08-06T04:48:41;16.30;99.90
18876;DHT22;9570;50.854;13.778;2023-08-06T04:51:07;16.30;99.90
18876;DHT22;9570;50.854;13.778;2023-08-06T04:53:33;16.30;99.90
18876;DHT22;9570;50.854;13.778;2023-08-06T04:55:58;16.30;99.90
18876;DHT22;9570;50.854;13.778;2023-08-06T04:58:24;16.40;99.90
18876;DHT22;9570;50.854;13.778;2023-08-06T05:00:49;16.40;99.90
18876;DHT22;9570;50.854;13.778;2023-08-06T05:03:15;16.40;99.90
18876;DHT22;9570;50.854;13.778;2023-08-06T05:05:41;16.40;99.90
18876;DHT22;9570;50.854;13.778;2023-08-06T05:08:07;16.40;99.90
18876;DHT22;9570;50.854;13.778;2023-08-06T05:10:32;16.40;99.90
18876;DHT22;9570;50.854;13.778;2023-08-06T05:12:58;16.30;99.90
18876;DHT22;9570;50.854;13.778;2023-08-06T05:15:24;16.30;99.90
18876;DHT22;9570;50.854;13.778;2023-08-06T05:17:51;16.40;99.90
18876;DHT22;9570;50.854;13.778;2023-08-06T05:20:16;16.40;99.90
18876;DHT22;9570;50.854;13.778;2023-08-06T05:22:42;16.30;99.90
18876;DHT22;9570;50.854;13.778;2023-08-06T05:25:08;16.40;99.90
18876;DHT22;9570;50.854;13.778;2023-08-06T05:27:34;16.40;99.90
18876;DHT22;9570;50.854;13.778;2023-08-06T05:29:59;16.40;99.90
18876;DHT22;9570;50.854;13.778;2023-08-06T05:32:25;16.40;99.90
18876;DHT22;9570;50.854;13.778;2023-08-06T05:34:50;16.40;99.90
18876;DHT22;9570;50.854;13.778;2023-08-06T05:37:16;16.40;99.90
18876;DHT22;9570;50.854;13.778;2023-08-06T05:39:41;16.40;99.90
18876;DHT22;9570;50.854;13.778;2023-08-06T05:42:07;16.40;99.90
18876;DHT22;9570;50.854;13.778;2023-08-06T05:44:32;16.50;99.90
18876;DHT22;9570;50.854;13.778;2023-08-06T05:46:58;16.50;99.90
18876;DHT22;9570;50.854;13.778;2023-08-06T05:49:24;16.50;99.90
18876;DHT22;9570;50.854;13.778;2023-08-06T05:51:49;16.50;99.90
18876;DHT22;9570;50.854;13.778;2023-08-06T05:54:15;16.50;99.90
18876;DHT22;9570;50.854;13.778;2023-08-06T05:56:40;16.50;99.90
18876;DHT22;9570;50.854;13.778;2023-08-06T05:59:06;16.50;99.90
18876;DHT22;9570;50.854;13.778;2023-08-06T06:01:31;16.60;99.90
18876;DHT22;9570;50.854;13.778;2023-08-06T06:03:57;16.50;99.90
18876;DHT22;9570;50.854;13.778;2023-08-06T06:06:22;16.60;99.90
18876;DHT22;9570;50.854;13.778;2023-08-06T06:08:48;16.60;99.90
18876;DHT22;9570;50.854;13.778;2023-08-06T06:11:13;16.60;99.90
18876;DHT22;9570;50.854;13.778;2023-08-06T06:13:39;16.60;99.90
18876;DHT22;9570;50.854;13.778;2023-08-06T06:16:04;16.60;99.90
18876;DHT22;9570;50.854;13.778;2023-08-06T06:18:30;16.60;99.90
18876;DHT22;9570;50.854;13.778;2023-08-06T06:20:56;16.60;99.90
18876;DHT22;9570;50.854;13.778;2023-08-06T06:23:21;16.60;99.90
18876;DHT22;9570;50.854;13.778;2023-08-06T06:25:48;16.70;99.90
18876;DHT22;9570;50.854;13.778;2023-08-06T06:28:14;16.70;99.90
18876;DHT22;9570;50.854;13.778;2023-08-06T06:30:41;16.70;99.90
18876;DHT22;9570;50.854;13.778;2023-08-06T06:33:07;16.70;99.90
18876;DHT22;9570;50.854;13.778;2023-08-06T06:35:33;16.80;99.90
18876;DHT22;9570;50.854;13.778;2023-08-06T06:37:59;16.80;99.90
18876;DHT22;9570;50.854;13.778;2023-08-06T06:40:25;16.80;99.90
18876;DHT22;9570;50.854;13.778;2023-08-06T06:42:51;16.70;99.90
18876;DHT22;9570;50.854;13.778;2023-08-06T06:45:16;16.50;99.90
18876;DHT22;9570;50.854;13.778;2023-08-06T06:47:42;16.40;99.90
18876;DHT22;9570;50.854;13.778;2023-08-06T06:50:07;16.50;99.90
18876;DHT22;9570;50.854;13.778;2023-08-06T06:52:33;16.60;99.90
18876;DHT22;9570;50.854;13.778;2023-08-06T06:54:58;16.60;99.90
18876;DHT22;9570;50.854;13.778;2023-08-06T06:57:24;16.60;99.90
18876;DHT22;9570;50.854;13.778;2023-08-06T06:59:49;16.70;99.90
18876;DHT22;9570;50.854;13.778;2023-08-06T07:02:15;16.70;99.90
18876;DHT22;9570;50.854;13.778;2023-08-06T07:04:40;16.80;99.90
18876;DHT22;9570;50.854;13.778;2023-08-06T07:07:06;16.70;99.90
18876;DHT22;9570;50.854;13.778;2023-08-06T07:09:31;16.50;99.90
18876;DHT22;9570;50.854;13.778;2023-08-06T07:11:57;16.60;99.90
18876;DHT22;9570;50.854;13.778;2023-08-06T07:14:25;16.60;99.90
18876;DHT22;9570;50.854;13.778;2023-08-06T07:16:51;16.60;99.90
18876;DHT22;9570;50.854;13.778;2023-08-06T07:19:16;16.70;99.90
18876;DHT22;9570;50.854;13.778;2023-08-06T07:21:42;16.80;99.90
18876;DHT22;9570;50.854;13.778;2023-08-06T07:24:07;16.90;99.90
18876;DHT22;9570;50.854;13.778;2023-08-06T07:26:33;17.00;99.90
18876;DHT22;9570;50.854;13.778;2023-08-06T07:28:58;16.90;99.90
18876;DHT22;9570;50.854;13.778;2023-08-06T07:31:24;17.00;99.90
18876;DHT22;9570;50.854;13.778;2023-08-06T07:33:49;16.80;99.90
18876;DHT22;9570;50.854;13.778;2023-08-06T07:36:15;16.70;99.90
18876;DHT22;9570;50.854;13.778;2023-08-06T07:38:41;16.60;99.90
18876;DHT22;9570;50.854;13.778;2023-08-06T07:41:06;16.60;99.90
18876;DHT22;9570;50.854;13.778;2023-08-06T07:43:32;16.70;99.90
18876;DHT22;9570;50.854;13.778;2023-08-06T07:45:59;16.60;99.90
18876;DHT22;9570;50.854;13.778;2023-08-06T07:48:27;16.60;99.90
18876;DHT22;9570;50.854;13.778;2023-08-06T07:50:56;16.50;99.90
18876;DHT22;9570;50.854;13.778;2023-08-06T07:53:23;16.50;99.90
18876;DHT22;9570;50.854;13.778;2023-08-06T07:55:53;16.40;99.90
18876;DHT22;9570;50.854;13.778;2023-08-06T07:58:20;16.30;99.90
18876;DHT22;9570;50.854;13.778;2023-08-06T08:00:46;16.40;99.90
18876;DHT22;9570;50.854;13.778;2023-08-06T08:03:15;16.50;99.90
18876;DHT22;9570;50.854;13.778;2023-08-06T08:05:42;16.70;99.90
18876;DHT22;9570;50.854;13.778;2023-08-06T08:08:08;16.70;99.90
18876;DHT22;9570;50.854;13.778;2023-08-06T08:10:34;16.60;99.90
18876;DHT22;9570;50.854;13.778;2023-08-06T08:13:00;16.40;99.90
18876;DHT22;9570;50.854;13.778;2023-08-06T08:15:28;16.30;99.90
18876;DHT22;9570;50.854;13.778;2023-08-06T08:17:54;16.30;99.90
18876;DHT22;9570;50.854;13.778;2023-08-06T08:20:20;16.30;99.90
18876;DHT22;9570;50.854;13.778;2023-08-06T08:22:45;16.00;99.90
18876;DHT22;9570;50.854;13.778;2023-08-06T08:25:11;16.10;99.90
18876;DHT22;9570;50.854;13.778;2023-08-06T08:27:36;16.30;99.90
18876;DHT22;9570;50.854;13.778;2023-08-06T08:30:02;16.40;99.90
18876;DHT22;9570;50.854;13.778;2023-08-06T08:32:28;16.40;99.90
18876;DHT22;9570;50.854;13.778;2023-08-06T08:34:53;16.50;99.90
18876;DHT22;9570;50.854;13.778;2023-08-06T08:37:19;16.50;99.90
18876;DHT22;9570;50.854;13.778;2023-08-06T08:39:44;16.30;99.90
18876;DHT22;9570;50.854;13.778;2023-08-06T08:42:10;16.20;99.90
18876;DHT22;9570;50.854;13.778;2023-08-06T08:44:36;16.30;99.90
18876;DHT22;9570;50.854;13.778;2023-08-06T08:47:06;16.30;99.90
18876;DHT22;9570;50.854;13.778;2023-08-06T08:49:32;16.30;99.90
18876;DHT22;9570;50.854;13.778;2023-08-06T08:51:59;16.30;99.90
18876;DHT22;9570;50.854;13.778;2023-08-06T08:54:27;16.30;99.90
18876;DHT22;9570;50.854;13.778;2023-08-06T08:56:54;16.50;99.90
18876;DHT22;9570;50.854;13.778;2023-08-06T08:59:20;16.60;99.90
18876;DHT22;9570;50.854;13.778;2023-08-06T09:01:48;16.50;99.90
18876;DHT22;9570;50.854;13.778;2023-08-06T09:04:19;16.50;99.90
18876;DHT22;9570;50.854;13.778;2023-08-06T09:06:50;16.50;99.90
18876;DHT22;9570;50.854;13.778;2023-08-06T09:09:30;16.50;99.90
18876;DHT22;9570;50.854;13.778;2023-08-06T09:12:01;16.60;99.90
18876;DHT22;9570;50.854;13.778;2023-08-06T09:14:27;16.60;99.90
18876;DHT22;9570;50.854;13.778;2023-08-06T09:16:54;16.70;99.90
18876;DHT22;9570;50.854;13.778;2023-08-06T09:19:20;16.70;99.90
18876;DHT22;9570;50.854;13.778;2023-08-06T09:21:46;16.60;99.90
18876;DHT22;9570;50.854;13.778;2023-08-06T09:24:14;16.60;99.90
18876;DHT22;9570;50.854;13.778;2023-08-06T09:26:41;16.60;99.90
18876;DHT22;9570;50.854;13.778;2023-08-06T09:29:07;16.70;99.90
18876;DHT22;9570;50.854;13.778;2023-08-06T09:34:16;16.90;99.90
18876;DHT22;9570;50.854;13.778;2023-08-06T09:36:46;17.10;99.90
18876;DHT22;9570;50.854;13.778;2023-08-06T09:39:25;17.30;99.90
18876;DHT22;9570;50.854;13.778;2023-08-06T09:41:59;17.30;99.90
18876;DHT22;9570;50.854;13.778;2023-08-06T09:44:26;17.30;99.90
18876;DHT22;9570;50.854;13.778;2023-08-06T09:46:53;17.20;99.90
18876;DHT22;9570;50.854;13.778;2023-08-06T09:49:20;17.10;99.90
18876;DHT22;9570;50.854;13.778;2023-08-06T09:51:47;17.20;99.90
18876;DHT22;9570;50.854;13.778;2023-08-06T09:54:16;17.30;99.90
18876;DHT22;9570;50.854;13.778;2023-08-06T09:56:42;17.20;99.90
18876;DHT22;9570;50.854;13.778;2023-08-06T09:59:09;17.00;99.90
18876;DHT22;9570;50.854;13.778;2023-08-06T10:01:36;17.10;99.90
18876;DHT22;9570;50.854;13.778;2023-08-06T10:04:06;17.10;99.90
18876;DHT22;9570;50.854;13.778;2023-08-06T10:06:36;17.00;99.90
18876;DHT22;9570;50.854;13.778;2023-08-06T10:09:02;16.90;99.90
18876;DHT22;9570;50.854;13.778;2023-08-06T10:11:29;17.00;99.90
18876;DHT22;9570;50.854;13.778;2023-08-06T10:14:08;16.90;99.90
18876;DHT22;9570;50.854;13.778;2023-08-06T10:16:36;17.00;99.90
18876;DHT22;9570;50.854;13.778;2023-08-06T10:19:04;16.80;99.90
18876;DHT22;9570;50.854;13.778;2023-08-06T10:21:33;16.70;99.90
18876;DHT22;9570;50.854;13.778;2023-08-06T10:23:58;16.80;99.90
18876;DHT22;9570;50.854;13.778;2023-08-06T10:26:30;16.90;99.90
18876;DHT22;9570;50.854;13.778;2023-08-06T10:28:56;17.10;99.90
18876;DHT22;9570;50.854;13.778;2023-08-06T10:32:02;17.30;99.90
18876;DHT22;9570;50.854;13.778;2023-08-06T10:34:57;17.60;99.90
18876;DHT22;9570;50.854;13.778;2023-08-06T10:37:36;17.50;99.90
18876;DHT22;9570;50.854;13.778;2023-08-06T10:40:02;17.30;99.90
18876;DHT22;9570;50.854;13.778;2023-08-06T10:42:29;17.20;99.90
18876;DHT22;9570;50.854;13.778;2023-08-06T10:45:15;17.30;99.90
18876;DHT22;9570;50.854;13.778;2023-08-06T10:47:41;17.40;99.90
18876;DHT22;9570;50.854;13.778;2023-08-06T10:50:17;17.50;99.90
18876;DHT22;9570;50.854;13.778;2023-08-06T10:52:47;17.30;99.90
18876;DHT22;9570;50.854;13.778;2023-08-06T10:55:13;17.40;99.90
18876;DHT22;9570;50.854;13.778;2023-08-06T10:57:39;17.50;99.90
18876;DHT22;9570;50.854;13.778;2023-08-06T11:00:06;17.60;99.90
18876;DHT22;9570;50.854;13.778;2023-08-06T11:02:34;17.60;99.90
18876;DHT22;9570;50.854;13.778;2023-08-06T11:05:05;17.60;99.90
18876;DHT22;9570;50.854;13.778;2023-08-06T11:07:30;17.70;99.90
18876;DHT22;9570;50.854;13.778;2023-08-06T11:10:10;17.60;99.90
18876;DHT22;9570;50.854;13.778;2023-08-06T11:12:36;17.60;99.90
18876;DHT22;9570;50.854;13.778;2023-08-06T11:15:03;17.80;99.90
18876;DHT22;9570;50.854;13.778;2023-08-06T11:17:30;17.70;99.90
18876;DHT22;9570;50.854;13.778;2023-08-06T11:19:58;17.90;99.90
18876;DHT22;9570;50.854;13.778;2023-08-06T11:22:24;18.10;99.90
18876;DHT22;9570;50.854;13.778;2023-08-06T11:24:49;18.10;99.90
18876;DHT22;9570;50.854;13.778;2023-08-06T11:27:16;18.10;99.90
18876;DHT22;9570;50.854;13.778;2023-08-06T11:29:43;17.80;99.90
18876;DHT22;9570;50.854;13.778;2023-08-06T11:32:09;17.80;99.90
18876;DHT22;9570;50.854;13.778;2023-08-06T11:34:35;17.80;99.90
18876;DHT22;9570;50.854;13.778;2023-08-06T11:37:02;17.80;99.90
18876;DHT22;9570;50.854;13.778;2023-08-06T11:39:28;17.70;99.90
18876;DHT22;9570;50.854;13.778;2023-08-06T11:41:54;17.70;99.90
18876;DHT22;9570;50.854;13.778;2023-08-06T11:44:20;17.60;99.90
18876;DHT22;9570;50.854;13.778;2023-08-06T11:46:55;17.60;99.90
18876;DHT22;9570;50.854;13.778;2023-08-06T11:49:46;17.90;99.90
18876;DHT22;9570;50.854;13.778;2023-08-06T11:52:20;18.00;99.90
18876;DHT22;9570;50.854;13.778;2023-08-06T11:55:05;18.10;99.90
18876;DHT22;9570;50.854;13.778;2023-08-06T11:57:33;18.00;99.90
18876;DHT22;9570;50.854;13.778;2023-08-06T12:00:06;17.80;99.90
18876;DHT22;9570;50.854;13.778;2023-08-06T12:02:33;17.90;99.90
18876;DHT22;9570;50.854;13.778;2023-08-06T12:05:10;18.10;99.90
18876;DHT22;9570;50.854;13.778;2023-08-06T12:07:41;18.20;99.90
18876;DHT22;9570;50.854;13.778;2023-08-06T12:10:07;18.30;99.90
18876;DHT22;9570;50.854;13.778;2023-08-06T12:12:34;18.20;99.90
18876;DHT22;9570;50.854;13.778;2023-08-06T12:14:59;18.30;99.90
18876;DHT22;9570;50.854;13.778;2023-08-06T12:17:25;18.20;99.90
18876;DHT22;9570;50.854;13.778;2023-08-06T12:19:51;18.30;99.90
18876;DHT22;9570;50.854;13.778;2023-08-06T12:22:16;18.20;99.90
18876;DHT22;9570;50.854;13.778;2023-08-06T12:24:43;18.30;99.90
18876;DHT22;9570;50.854;13.778;2023-08-06T12:27:09;18.40;99.90
18876;DHT22;9570;50.854;13.778;2023-08-06T12:29:35;18.20;99.90
18876;DHT22;9570;50.854;13.778;2023-08-06T12:32:01;18.30;99.90
18876;DHT22;9570;50.854;13.778;2023-08-06T12:34:27;18.30;99.90
18876;DHT22;9570;50.854;13.778;2023-08-06T12:36:53;18.40;99.90
18876;DHT22;9570;50.854;13.778;2023-08-06T12:39:18;18.40;99.90
18876;DHT22;9570;50.854;13.778;2023-08-06T12:41:44;18.40;99.90
18876;DHT22;9570;50.854;13.778;2023-08-06T12:44:11;18.50;99.90
18876;DHT22;9570;50.854;13.778;2023-08-06T12:46:37;18.50;99.90
18876;DHT22;9570;50.854;13.778;2023-08-06T12:49:02;18.60;99.90
18876;DHT22;9570;50.854;13.778;2023-08-06T12:51:28;18.50;99.90
18876;DHT22;9570;50.854;13.778;2023-08-06T12:53:53;18.60;99.90
18876;DHT22;9570;50.854;13.778;2023-08-06T12:56:19;18.60;99.90
18876;DHT22;9570;50.854;13.778;2023-08-06T12:58:44;18.50;99.90
18876;DHT22;9570;50.854;13.778;2023-08-06T13:01:10;18.60;99.90
18876;DHT22;9570;50.854;13.778;2023-08-06T13:03:35;18.70;99.90
18876;DHT22;9570;50.854;13.778;2023-08-06T13:06:01;18.80;99.90
18876;DHT22;9570;50.854;13.778;2023-08-06T13:08:26;18.80;99.90
18876;DHT22;9570;50.854;13.778;2023-08-06T13:10:52;18.80;99.90
18876;DHT22;9570;50.854;13.778;2023-08-06T13:13:18;18.90;99.90
18876;DHT22;9570;50.854;13.778;2023-08-06T13:15:43;18.90;99.90
18876;DHT22;9570;50.854;13.778;2023-08-06T13:18:09;18.90;99.90
18876;DHT22;9570;50.854;13.778;2023-08-06T13:20:37;19.00;99.90
18876;DHT22;9570;50.854;13.778;2023-08-06T13:23:03;19.00;99.90
18876;DHT22;9570;50.854;13.778;2023-08-06T13:25:29;18.90;99.90
18876;DHT22;9570;50.854;13.778;2023-08-06T13:27:54;18.90;99.90
18876;DHT22;9570;50.854;13.778;2023-08-06T13:30:20;18.90;99.90
18876;DHT22;9570;50.854;13.778;2023-08-06T13:32:46;19.00;99.90
18876;DHT22;9570;50.854;13.778;2023-08-06T13:35:11;18.90;99.90
18876;DHT22;9570;50.854;13.778;2023-08-06T13:37:37;18.90;99.90
18876;DHT22;9570;50.854;13.778;2023-08-06T13:40:03;18.90;99.90
18876;DHT22;9570;50.854;13.778;2023-08-06T13:42:29;18.90;99.90
18876;DHT22;9570;50.854;13.778;2023-08-06T13:44:54;18.80;99.90
18876;DHT22;9570;50.854;13.778;2023-08-06T13:47:27;18.80;99.90
18876;DHT22;9570;50.854;13.778;2023-08-06T13:49:53;18.80;99.90
18876;DHT22;9570;50.854;13.778;2023-08-06T13:52:18;18.70;99.90
18876;DHT22;9570;50.854;13.778;2023-08-06T13:54:44;18.50;99.90
18876;DHT22;9570;50.854;13.778;2023-08-06T13:57:09;18.50;99.90
18876;DHT22;9570;50.854;13.778;2023-08-06T13:59:35;18.50;99.90
18876;DHT22;9570;50.854;13.778;2023-08-06T14:02:00;18.60;99.90
18876;DHT22;9570;50.854;13.778;2023-08-06T14:04:26;18.60;99.90
18876;DHT22;9570;50.854;13.778;2023-08-06T14:06:51;18.80;99.90
18876;DHT22;9570;50.854;13.778;2023-08-06T14:09:17;18.80;99.90
18876;DHT22;9570;50.854;13.778;2023-08-06T14:11:44;18.80;99.90
18876;DHT22;9570;50.854;13.778;2023-08-06T14:14:11;18.80;99.90
18876;DHT22;9570;50.854;13.778;2023-08-06T14:16:36;19.00;99.90
18876;DHT22;9570;50.854;13.778;2023-08-06T14:19:02;19.10;99.90
18876;DHT22;9570;50.854;13.778;2023-08-06T14:21:28;19.00;99.90
18876;DHT22;9570;50.854;13.778;2023-08-06T14:23:54;19.00;99.90
18876;DHT22;9570;50.854;13.778;2023-08-06T14:26:19;18.90;99.90
18876;DHT22;9570;50.854;13.778;2023-08-06T14:28:45;18.70;99.90
18876;DHT22;9570;50.854;13.778;2023-08-06T14:31:11;18.60;99.90
18876;DHT22;9570;50.854;13.778;2023-08-06T14:33:37;18.70;99.90
18876;DHT22;9570;50.854;13.778;2023-08-06T14:36:02;18.60;99.90
18876;DHT22;9570;50.854;13.778;2023-08-06T14:38:28;18.70;99.90
18876;DHT22;9570;50.854;13.778;2023-08-06T14:40:53;18.60;99.90
18876;DHT22;9570;50.854;13.778;2023-08-06T14:43:19;18.60;99.90
18876;DHT22;9570;50.854;13.778;2023-08-06T14:45:45;18.70;99.90
18876;DHT22;9570;50.854;13.778;2023-08-06T14:48:10;18.90;99.90
18876;DHT22;9570;50.854;13.778;2023-08-06T14:50:36;18.90;99.90
18876;DHT22;9570;50.854;13.778;2023-08-06T14:53:03;18.90;99.90
18876;DHT22;9570;50.854;13.778;2023-08-06T14:55:29;19.00;99.90
18876;DHT22;9570;50.854;13.778;2023-08-06T14:57:55;19.00;99.90
18876;DHT22;9570;50.854;13.778;2023-08-06T15:00:20;19.00;99.90
18876;DHT22;9570;50.854;13.778;2023-08-06T15:02:47;19.10;99.90
18876;DHT22;9570;50.854;13.778;2023-08-06T15:05:12;19.20;99.90
18876;DHT22;9570;50.854;13.778;2023-08-06T15:07:38;19.30;99.90
18876;DHT22;9570;50.854;13.778;2023-08-06T15:10:05;19.20;99.90
18876;DHT22;9570;50.854;13.778;2023-08-06T15:12:31;19.20;99.90
18876;DHT22;9570;50.854;13.778;2023-08-06T15:14:58;19.30;99.90
18876;DHT22;9570;50.854;13.778;2023-08-06T15:17:24;19.30;99.90
18876;DHT22;9570;50.854;13.778;2023-08-06T15:19:49;19.50;99.90
18876;DHT22;9570;50.854;13.778;2023-08-06T15:22:15;19.50;99.90
18876;DHT22;9570;50.854;13.778;2023-08-06T15:24:40;19.40;99.90
18876;DHT22;9570;50.854;13.778;2023-08-06T15:27:11;19.40;99.90
18876;DHT22;9570;50.854;13.778;2023-08-06T15:29:37;19.40;99.90
18876;DHT22;9570;50.854;13.778;2023-08-06T15:32:03;19.20;99.90
18876;DHT22;9570;50.854;13.778;2023-08-06T15:34:28;19.00;99.90
18876;DHT22;9570;50.854;13.778;2023-08-06T15:36:54;19.10;99.90